sensor_id;sensor_type;location;lat;lon;timestamp;P1;durP1;ratioP1;P2;durP2;ratioP2
13943;SDS011;7044;53.286;8.534;2024-02-21T00:01:30;19.90;;;9.65;;
13943;SDS011;7044;53.286;8.534;2024-02-21T00:03:57;20.17;;;9.85;;
13943;SDS011;7044;53.286;8.534;2024-02-21T00:06:24;15.88;;;9.32;;
13943;SDS011;7044;53.286;8.534;2024-02-21T00:08:53;19.95;;;9.90;;
13943;SDS011;7044;53.286;8.534;2024-02-21T00:11:20;25.85;;;10.50;;
13943;SDS011;7044;53.286;8.534;2024-02-21T00:13:47;25.20;;;9.40;;
13943;SDS011;7044;53.286;8.534;2024-02-21T00:16:15;19.88;;;9.88;;
13943;SDS011;7044;53.286;8.534;2024-02-21T00:18:43;26.27;;;9.98;;
13943;SDS011;7044;53.286;8.534;2024-02-21T00:21:10;20.85;;;10.55;;
13943;SDS011;7044;53.286;8.534;2024-02-21T00:23:40;17.02;;;9.38;;
13943;SDS011;7044;53.286;8.534;2024-02-21T00:26:08;25.80;;;10.95;;
13943;SDS011;7044;53.286;8.534;2024-02-21T00:28:35;18.73;;;10.48;;
13943;SDS011;7044;53.286;8.534;2024-02-21T00:31:02;21.75;;;10.82;;
13943;SDS011;7044;53.286;8.534;2024-02-21T00:33:29;24.92;;;11.18;;
13943;SDS011;7044;53.286;8.534;2024-02-21T00:35:56;33.92;;;11.63;;
13943;SDS011;7044;53.286;8.534;2024-02-21T00:38:22;20.55;;;11.90;;
13943;SDS011;7044;53.286;8.534;2024-02-21T00:40:49;22.65;;;11.50;;
13943;SDS011;7044;53.286;8.534;2024-02-21T00:43:18;23.23;;;12.18;;
13943;SDS011;7044;53.286;8.534;2024-02-21T00:45:48;25.60;;;12.27;;
13943;SDS011;7044;53.286;8.534;2024-02-21T00:48:15;23.35;;;11.38;;
13943;SDS011;7044;53.286;8.534;2024-02-21T00:50:42;26.55;;;12.18;;
13943;SDS011;7044;53.286;8.534;2024-02-21T00:53:09;24.08;;;11.90;;
13943;SDS011;7044;53.286;8.534;2024-02-21T00:55:36;21.67;;;12.43;;
13943;SDS011;7044;53.286;8.534;2024-02-21T00:58:03;21.83;;;12.20;;
13943;SDS011;7044;53.286;8.534;2024-02-21T01:00:31;25.85;;;12.68;;
13943;SDS011;7044;53.286;8.534;2024-02-21T01:02:58;27.00;;;12.95;;
13943;SDS011;7044;53.286;8.534;2024-02-21T01:05:25;22.67;;;13.50;;
13943;SDS011;7044;53.286;8.534;2024-02-21T01:07:53;18.85;;;11.38;;
13943;SDS011;7044;53.286;8.534;2024-02-21T01:10:20;23.40;;;12.55;;
13943;SDS011;7044;53.286;8.534;2024-02-21T01:12:47;24.38;;;12.23;;
13943;SDS011;7044;53.286;8.534;2024-02-21T01:15:14;22.98;;;12.55;;
13943;SDS011;7044;53.286;8.534;2024-02-21T01:17:43;23.77;;;11.18;;
13943;SDS011;7044;53.286;8.534;2024-02-21T01:20:10;23.45;;;12.48;;
13943;SDS011;7044;53.286;8.534;2024-02-21T01:22:37;21.38;;;11.52;;
13943;SDS011;7044;53.286;8.534;2024-02-21T01:25:04;23.90;;;11.95;;
13943;SDS011;7044;53.286;8.534;2024-02-21T01:27:32;26.85;;;12.07;;
13943;SDS011;7044;53.286;8.534;2024-02-21T01:29:58;19.30;;;11.20;;
13943;SDS011;7044;53.286;8.534;2024-02-21T01:32:25;15.75;;;10.52;;
13943;SDS011;7044;53.286;8.534;2024-02-21T01:34:54;18.98;;;10.90;;
13943;SDS011;7044;53.286;8.534;2024-02-21T01:37:20;19.77;;;10.70;;
13943;SDS011;7044;53.286;8.534;2024-02-21T01:39:47;22.33;;;10.15;;
13943;SDS011;7044;53.286;8.534;2024-02-21T01:42:14;20.42;;;9.95;;
13943;SDS011;7044;53.286;8.534;2024-02-21T01:44:41;16.90;;;10.05;;
13943;SDS011;7044;53.286;8.534;2024-02-21T01:47:08;22.05;;;10.00;;
13943;SDS011;7044;53.286;8.534;2024-02-21T01:49:36;18.30;;;10.02;;
13943;SDS011;7044;53.286;8.534;2024-02-21T01:52:05;22.08;;;9.68;;
13943;SDS011;7044;53.286;8.534;2024-02-21T01:54:32;17.70;;;10.77;;
13943;SDS011;7044;53.286;8.534;2024-02-21T01:56:59;21.90;;;12.30;;
13943;SDS011;7044;53.286;8.534;2024-02-21T01:59:26;25.00;;;12.38;;
13943;SDS011;7044;53.286;8.534;2024-02-21T02:01:53;22.63;;;10.27;;
13943;SDS011;7044;53.286;8.534;2024-02-21T02:04:22;17.58;;;9.98;;
13943;SDS011;7044;53.286;8.534;2024-02-21T02:06:52;23.92;;;10.45;;
13943;SDS011;7044;53.286;8.534;2024-02-21T02:09:23;14.90;;;9.50;;
13943;SDS011;7044;53.286;8.534;2024-02-21T02:11:50;21.58;;;9.57;;
13943;SDS011;7044;53.286;8.534;2024-02-21T02:14:17;15.90;;;9.85;;
13943;SDS011;7044;53.286;8.534;2024-02-21T02:16:45;19.08;;;9.23;;
13943;SDS011;7044;53.286;8.534;2024-02-21T02:19:13;21.13;;;10.23;;
13943;SDS011;7044;53.286;8.534;2024-02-21T02:21:42;24.05;;;9.95;;
13943;SDS011;7044;53.286;8.534;2024-02-21T02:24:13;16.15;;;9.07;;
13943;SDS011;7044;53.286;8.534;2024-02-21T02:26:41;18.08;;;9.60;;
13943;SDS011;7044;53.286;8.534;2024-02-21T02:29:08;17.77;;;10.05;;
13943;SDS011;7044;53.286;8.534;2024-02-21T02:31:35;16.67;;;9.10;;
13943;SDS011;7044;53.286;8.534;2024-02-21T02:34:02;20.92;;;9.40;;
13943;SDS011;7044;53.286;8.534;2024-02-21T02:36:30;26.35;;;10.27;;
13943;SDS011;7044;53.286;8.534;2024-02-21T02:38:58;21.17;;;9.38;;
13943;SDS011;7044;53.286;8.534;2024-02-21T02:41:27;16.20;;;9.45;;
13943;SDS011;7044;53.286;8.534;2024-02-21T02:43:53;19.02;;;9.23;;
13943;SDS011;7044;53.286;8.534;2024-02-21T02:46:20;17.75;;;8.35;;
13943;SDS011;7044;53.286;8.534;2024-02-21T02:48:47;18.98;;;9.43;;
13943;SDS011;7044;53.286;8.534;2024-02-21T02:51:14;24.08;;;8.95;;
13943;SDS011;7044;53.286;8.534;2024-02-21T02:53:41;19.90;;;8.45;;
13943;SDS011;7044;53.286;8.534;2024-02-21T02:56:13;17.75;;;9.32;;
13943;SDS011;7044;53.286;8.534;2024-02-21T02:58:42;15.65;;;8.68;;
13943;SDS011;7044;53.286;8.534;2024-02-21T03:01:08;20.00;;;9.20;;
13943;SDS011;7044;53.286;8.534;2024-02-21T03:03:35;16.38;;;8.95;;
13943;SDS011;7044;53.286;8.534;2024-02-21T03:06:03;15.63;;;8.07;;
13943;SDS011;7044;53.286;8.534;2024-02-21T03:08:30;16.83;;;9.68;;
13943;SDS011;7044;53.286;8.534;2024-02-21T03:10:57;15.10;;;9.18;;
13943;SDS011;7044;53.286;8.534;2024-02-21T03:13:25;19.08;;;8.43;;
13943;SDS011;7044;53.286;8.534;2024-02-21T03:15:53;14.25;;;7.63;;
13943;SDS011;7044;53.286;8.534;2024-02-21T03:18:20;21.23;;;8.57;;
13943;SDS011;7044;53.286;8.534;2024-02-21T03:20:47;17.10;;;8.73;;
13943;SDS011;7044;53.286;8.534;2024-02-21T03:23:14;18.73;;;9.38;;
13943;SDS011;7044;53.286;8.534;2024-02-21T03:25:40;14.57;;;8.98;;
13943;SDS011;7044;53.286;8.534;2024-02-21T03:28:07;18.95;;;8.50;;
13943;SDS011;7044;53.286;8.534;2024-02-21T03:30:34;21.05;;;9.20;;
13943;SDS011;7044;53.286;8.534;2024-02-21T03:33:02;27.75;;;9.15;;
13943;SDS011;7044;53.286;8.534;2024-02-21T03:35:30;17.67;;;8.48;;
13943;SDS011;7044;53.286;8.534;2024-02-21T03:37:57;24.08;;;10.40;;
13943;SDS011;7044;53.286;8.534;2024-02-21T03:40:23;18.98;;;9.75;;
13943;SDS011;7044;53.286;8.534;2024-02-21T03:42:50;20.08;;;8.98;;
13943;SDS011;7044;53.286;8.534;2024-02-21T03:45:17;15.13;;;7.20;;
13943;SDS011;7044;53.286;8.534;2024-02-21T03:47:44;16.13;;;9.13;;
13943;SDS011;7044;53.286;8.534;2024-02-21T03:50:12;20.83;;;8.75;;
13943;SDS011;7044;53.286;8.534;2024-02-21T03:52:39;15.77;;;7.63;;
13943;SDS011;7044;53.286;8.534;2024-02-21T03:55:06;19.45;;;8.30;;
13943;SDS011;7044;53.286;8.534;2024-02-21T03:57:34;16.48;;;8.93;;
13943;SDS011;7044;53.286;8.534;2024-02-21T04:00:01;14.25;;;8.20;;
13943;SDS011;7044;53.286;8.534;2024-02-21T04:02:28;11.73;;;7.75;;
13943;SDS011;7044;53.286;8.534;2024-02-21T04:04:55;15.95;;;8.77;;
13943;SDS011;7044;53.286;8.534;2024-02-21T04:07:23;12.15;;;7.03;;
13943;SDS011;7044;53.286;8.534;2024-02-21T04:09:50;11.10;;;7.22;;
13943;SDS011;7044;53.286;8.534;2024-02-21T04:12:17;10.35;;;7.15;;
13943;SDS011;7044;53.286;8.534;2024-02-21T04:14:43;13.02;;;8.15;;
13943;SDS011;7044;53.286;8.534;2024-02-21T04:17:10;20.15;;;7.70;;
13943;SDS011;7044;53.286;8.534;2024-02-21T04:19:37;12.98;;;7.03;;
13943;SDS011;7044;53.286;8.534;2024-02-21T04:22:04;10.88;;;6.68;;
13943;SDS011;7044;53.286;8.534;2024-02-21T04:24:32;13.85;;;6.97;;
13943;SDS011;7044;53.286;8.534;2024-02-21T04:26:59;14.07;;;6.95;;
13943;SDS011;7044;53.286;8.534;2024-02-21T04:29:26;10.25;;;6.93;;
13943;SDS011;7044;53.286;8.534;2024-02-21T04:31:53;16.05;;;7.43;;
13943;SDS011;7044;53.286;8.534;2024-02-21T04:34:20;9.10;;;6.55;;
13943;SDS011;7044;53.286;8.534;2024-02-21T04:36:47;10.27;;;6.32;;
13943;SDS011;7044;53.286;8.534;2024-02-21T04:39:14;9.02;;;6.50;;
13943;SDS011;7044;53.286;8.534;2024-02-21T04:41:42;15.40;;;7.20;;
13943;SDS011;7044;53.286;8.534;2024-02-21T04:44:09;8.77;;;5.75;;
13943;SDS011;7044;53.286;8.534;2024-02-21T04:46:35;11.65;;;6.45;;
13943;SDS011;7044;53.286;8.534;2024-02-21T04:49:02;10.55;;;5.68;;
13943;SDS011;7044;53.286;8.534;2024-02-21T04:51:29;13.25;;;6.03;;
13943;SDS011;7044;53.286;8.534;2024-02-21T04:53:56;9.18;;;5.72;;
13943;SDS011;7044;53.286;8.534;2024-02-21T04:56:23;9.80;;;5.43;;
13943;SDS011;7044;53.286;8.534;2024-02-21T04:58:51;9.30;;;6.22;;
13943;SDS011;7044;53.286;8.534;2024-02-21T05:01:18;9.82;;;6.00;;
13943;SDS011;7044;53.286;8.534;2024-02-21T05:03:44;10.15;;;5.88;;
13943;SDS011;7044;53.286;8.534;2024-02-21T05:06:11;9.50;;;5.22;;
13943;SDS011;7044;53.286;8.534;2024-02-21T05:08:38;9.73;;;5.40;;
13943;SDS011;7044;53.286;8.534;2024-02-21T05:11:06;11.27;;;5.88;;
13943;SDS011;7044;53.286;8.534;2024-02-21T05:13:33;8.63;;;5.22;;
13943;SDS011;7044;53.286;8.534;2024-02-21T05:16:01;8.77;;;5.85;;
13943;SDS011;7044;53.286;8.534;2024-02-21T05:18:28;6.47;;;5.40;;
13943;SDS011;7044;53.286;8.534;2024-02-21T05:20:55;9.55;;;5.97;;
13943;SDS011;7044;53.286;8.534;2024-02-21T05:23:22;8.80;;;5.55;;
13943;SDS011;7044;53.286;8.534;2024-02-21T05:25:49;8.13;;;5.32;;
13943;SDS011;7044;53.286;8.534;2024-02-21T05:28:17;9.35;;;5.57;;
13943;SDS011;7044;53.286;8.534;2024-02-21T05:30:43;6.82;;;5.10;;
13943;SDS011;7044;53.286;8.534;2024-02-21T05:33:12;6.63;;;4.93;;
13943;SDS011;7044;53.286;8.534;2024-02-21T05:35:46;7.22;;;4.75;;
13943;SDS011;7044;53.286;8.534;2024-02-21T05:38:12;8.77;;;4.95;;
13943;SDS011;7044;53.286;8.534;2024-02-21T05:40:39;5.85;;;4.60;;
13943;SDS011;7044;53.286;8.534;2024-02-21T05:43:07;7.95;;;5.13;;
13943;SDS011;7044;53.286;8.534;2024-02-21T05:45:34;7.07;;;5.10;;
13943;SDS011;7044;53.286;8.534;2024-02-21T05:48:00;6.20;;;4.55;;
13943;SDS011;7044;53.286;8.534;2024-02-21T05:50:29;5.22;;;4.20;;
13943;SDS011;7044;53.286;8.534;2024-02-21T05:52:57;6.03;;;4.22;;
13943;SDS011;7044;53.286;8.534;2024-02-21T05:55:24;6.28;;;4.65;;
13943;SDS011;7044;53.286;8.534;2024-02-21T05:57:53;5.95;;;4.43;;
13943;SDS011;7044;53.286;8.534;2024-02-21T06:00:21;6.25;;;3.92;;
13943;SDS011;7044;53.286;8.534;2024-02-21T06:02:47;9.05;;;4.22;;
13943;SDS011;7044;53.286;8.534;2024-02-21T06:05:14;6.65;;;4.55;;
13943;SDS011;7044;53.286;8.534;2024-02-21T06:07:43;6.93;;;4.25;;
13943;SDS011;7044;53.286;8.534;2024-02-21T06:10:09;6.13;;;4.68;;
13943;SDS011;7044;53.286;8.534;2024-02-21T06:12:36;5.38;;;4.03;;
13943;SDS011;7044;53.286;8.534;2024-02-21T06:15:03;5.50;;;3.92;;
13943;SDS011;7044;53.286;8.534;2024-02-21T06:17:31;10.27;;;4.68;;
13943;SDS011;7044;53.286;8.534;2024-02-21T06:19:58;4.95;;;4.07;;
13943;SDS011;7044;53.286;8.534;2024-02-21T06:22:25;6.18;;;3.88;;
13943;SDS011;7044;53.286;8.534;2024-02-21T06:24:53;5.43;;;4.40;;
13943;SDS011;7044;53.286;8.534;2024-02-21T06:27:20;4.63;;;3.80;;
13943;SDS011;7044;53.286;8.534;2024-02-21T06:29:47;5.65;;;3.95;;
13943;SDS011;7044;53.286;8.534;2024-02-21T06:32:14;5.07;;;4.05;;
13943;SDS011;7044;53.286;8.534;2024-02-21T06:34:40;5.68;;;4.13;;
13943;SDS011;7044;53.286;8.534;2024-02-21T06:37:07;7.25;;;4.25;;
13943;SDS011;7044;53.286;8.534;2024-02-21T06:39:34;6.95;;;4.43;;
13943;SDS011;7044;53.286;8.534;2024-02-21T06:42:04;4.60;;;4.05;;
13943;SDS011;7044;53.286;8.534;2024-02-21T06:44:31;7.63;;;4.25;;
13943;SDS011;7044;53.286;8.534;2024-02-21T06:47:01;5.25;;;4.22;;
13943;SDS011;7044;53.286;8.534;2024-02-21T06:49:28;5.20;;;3.95;;
13943;SDS011;7044;53.286;8.534;2024-02-21T06:51:55;6.25;;;4.43;;
13943;SDS011;7044;53.286;8.534;2024-02-21T06:54:22;8.10;;;3.92;;
13943;SDS011;7044;53.286;8.534;2024-02-21T06:56:49;6.55;;;3.60;;
13943;SDS011;7044;53.286;8.534;2024-02-21T06:59:17;4.82;;;3.83;;
13943;SDS011;7044;53.286;8.534;2024-02-21T07:01:44;6.97;;;4.20;;
13943;SDS011;7044;53.286;8.534;2024-02-21T07:04:12;6.80;;;4.40;;
13943;SDS011;7044;53.286;8.534;2024-02-21T07:06:40;5.72;;;4.30;;
13943;SDS011;7044;53.286;8.534;2024-02-21T07:09:07;4.97;;;3.97;;
13943;SDS011;7044;53.286;8.534;2024-02-21T07:11:33;5.25;;;4.25;;
13943;SDS011;7044;53.286;8.534;2024-02-21T07:14:00;5.00;;;3.70;;
13943;SDS011;7044;53.286;8.534;2024-02-21T07:16:28;5.68;;;4.20;;
13943;SDS011;7044;53.286;8.534;2024-02-21T07:18:57;5.22;;;3.80;;
13943;SDS011;7044;53.286;8.534;2024-02-21T07:21:24;4.60;;;3.92;;
13943;SDS011;7044;53.286;8.534;2024-02-21T07:23:51;5.88;;;4.30;;
13943;SDS011;7044;53.286;8.534;2024-02-21T07:26:18;5.25;;;3.97;;
13943;SDS011;7044;53.286;8.534;2024-02-21T07:28:45;12.05;;;5.88;;
13943;SDS011;7044;53.286;8.534;2024-02-21T07:31:12;8.63;;;6.10;;
13943;SDS011;7044;53.286;8.534;2024-02-21T07:33:40;6.88;;;5.18;;
13943;SDS011;7044;53.286;8.534;2024-02-21T07:36:07;7.13;;;4.97;;
13943;SDS011;7044;53.286;8.534;2024-02-21T07:38:36;7.22;;;5.07;;
13943;SDS011;7044;53.286;8.534;2024-02-21T07:41:03;7.63;;;5.05;;
13943;SDS011;7044;53.286;8.534;2024-02-21T07:43:30;8.13;;;5.63;;
13943;SDS011;7044;53.286;8.534;2024-02-21T07:45:57;7.82;;;5.75;;
13943;SDS011;7044;53.286;8.534;2024-02-21T07:48:24;7.53;;;5.28;;
13943;SDS011;7044;53.286;8.534;2024-02-21T07:50:53;6.95;;;5.60;;
13943;SDS011;7044;53.286;8.534;2024-02-21T07:53:20;8.40;;;5.60;;
13943;SDS011;7044;53.286;8.534;2024-02-21T07:55:46;8.35;;;5.63;;
13943;SDS011;7044;53.286;8.534;2024-02-21T07:58:13;7.82;;;5.65;;
13943;SDS011;7044;53.286;8.534;2024-02-21T08:00:40;8.38;;;6.05;;
13943;SDS011;7044;53.286;8.534;2024-02-21T08:03:07;7.35;;;5.85;;
13943;SDS011;7044;53.286;8.534;2024-02-21T08:05:34;12.65;;;5.38;;
13943;SDS011;7044;53.286;8.534;2024-02-21T08:08:02;9.93;;;6.70;;
13943;SDS011;7044;53.286;8.534;2024-02-21T08:10:30;6.93;;;5.43;;
13943;SDS011;7044;53.286;8.534;2024-02-21T08:12:56;7.53;;;5.70;;
13943;SDS011;7044;53.286;8.534;2024-02-21T08:15:23;10.43;;;6.80;;
13943;SDS011;7044;53.286;8.534;2024-02-21T08:17:53;7.80;;;6.05;;
13943;SDS011;7044;53.286;8.534;2024-02-21T08:20:23;16.55;;;7.38;;
13943;SDS011;7044;53.286;8.534;2024-02-21T08:22:50;12.52;;;6.70;;
13943;SDS011;7044;53.286;8.534;2024-02-21T08:25:19;12.70;;;6.90;;
13943;SDS011;7044;53.286;8.534;2024-02-21T08:27:45;17.30;;;7.22;;
13943;SDS011;7044;53.286;8.534;2024-02-21T08:30:12;15.55;;;7.95;;
13943;SDS011;7044;53.286;8.534;2024-02-21T08:32:40;10.65;;;6.78;;
13943;SDS011;7044;53.286;8.534;2024-02-21T08:35:07;14.15;;;7.68;;
13943;SDS011;7044;53.286;8.534;2024-02-21T08:37:34;20.48;;;8.52;;
13943;SDS011;7044;53.286;8.534;2024-02-21T08:40:01;15.85;;;7.68;;
13943;SDS011;7044;53.286;8.534;2024-02-21T08:42:34;18.92;;;8.18;;
13943;SDS011;7044;53.286;8.534;2024-02-21T08:45:01;15.40;;;8.20;;
13943;SDS011;7044;53.286;8.534;2024-02-21T08:47:28;13.25;;;7.78;;
13943;SDS011;7044;53.286;8.534;2024-02-21T08:49:55;20.40;;;8.63;;
13943;SDS011;7044;53.286;8.534;2024-02-21T08:52:22;22.83;;;8.57;;
13943;SDS011;7044;53.286;8.534;2024-02-21T08:54:48;13.98;;;7.53;;
13943;SDS011;7044;53.286;8.534;2024-02-21T08:57:18;20.08;;;9.50;;
13943;SDS011;7044;53.286;8.534;2024-02-21T08:59:46;16.00;;;8.20;;
13943;SDS011;7044;53.286;8.534;2024-02-21T09:02:13;17.25;;;8.30;;
13943;SDS011;7044;53.286;8.534;2024-02-21T09:04:41;19.58;;;8.95;;
13943;SDS011;7044;53.286;8.534;2024-02-21T09:07:08;20.70;;;8.48;;
13943;SDS011;7044;53.286;8.534;2024-02-21T09:09:35;24.25;;;9.50;;
13943;SDS011;7044;53.286;8.534;2024-02-21T09:12:03;20.23;;;8.23;;
13943;SDS011;7044;53.286;8.534;2024-02-21T09:14:31;15.13;;;8.40;;
13943;SDS011;7044;53.286;8.534;2024-02-21T09:16:59;14.60;;;8.15;;
13943;SDS011;7044;53.286;8.534;2024-02-21T09:19:26;13.70;;;8.38;;
13943;SDS011;7044;53.286;8.534;2024-02-21T09:21:53;19.55;;;8.88;;
13943;SDS011;7044;53.286;8.534;2024-02-21T09:24:20;21.77;;;10.13;;
13943;SDS011;7044;53.286;8.534;2024-02-21T09:26:48;15.05;;;8.75;;
13943;SDS011;7044;53.286;8.534;2024-02-21T09:29:14;17.60;;;8.80;;
13943;SDS011;7044;53.286;8.534;2024-02-21T09:31:41;17.15;;;8.98;;
13943;SDS011;7044;53.286;8.534;2024-02-21T09:34:09;19.08;;;10.15;;
13943;SDS011;7044;53.286;8.534;2024-02-21T09:36:37;16.52;;;9.45;;
13943;SDS011;7044;53.286;8.534;2024-02-21T09:39:05;24.90;;;9.60;;
13943;SDS011;7044;53.286;8.534;2024-02-21T09:41:32;18.85;;;9.07;;
13943;SDS011;7044;53.286;8.534;2024-02-21T09:44:04;20.75;;;9.15;;
13943;SDS011;7044;53.286;8.534;2024-02-21T09:46:35;17.95;;;8.65;;
13943;SDS011;7044;53.286;8.534;2024-02-21T09:49:13;18.55;;;9.20;;
13943;SDS011;7044;53.286;8.534;2024-02-21T09:51:48;21.05;;;10.43;;
13943;SDS011;7044;53.286;8.534;2024-02-21T09:54:17;17.42;;;9.13;;
13943;SDS011;7044;53.286;8.534;2024-02-21T09:56:45;13.93;;;9.52;;
13943;SDS011;7044;53.286;8.534;2024-02-21T09:59:12;18.63;;;9.55;;
13943;SDS011;7044;53.286;8.534;2024-02-21T10:01:41;19.02;;;10.25;;
13943;SDS011;7044;53.286;8.534;2024-02-21T10:04:09;16.33;;;10.27;;
13943;SDS011;7044;53.286;8.534;2024-02-21T10:06:37;19.02;;;11.20;;
13943;SDS011;7044;53.286;8.534;2024-02-21T10:09:05;22.00;;;10.52;;
13943;SDS011;7044;53.286;8.534;2024-02-21T10:11:32;17.83;;;10.18;;
13943;SDS011;7044;53.286;8.534;2024-02-21T10:14:03;22.73;;;10.18;;
13943;SDS011;7044;53.286;8.534;2024-02-21T10:16:30;19.58;;;11.65;;
13943;SDS011;7044;53.286;8.534;2024-02-21T10:18:58;16.38;;;10.18;;
13943;SDS011;7044;53.286;8.534;2024-02-21T10:21:25;24.88;;;10.65;;
13943;SDS011;7044;53.286;8.534;2024-02-21T10:23:53;19.63;;;11.15;;
13943;SDS011;7044;53.286;8.534;2024-02-21T10:26:20;16.83;;;10.77;;
13943;SDS011;7044;53.286;8.534;2024-02-21T10:28:47;21.08;;;10.65;;
13943;SDS011;7044;53.286;8.534;2024-02-21T10:31:22;22.90;;;10.45;;
13943;SDS011;7044;53.286;8.534;2024-02-21T10:33:53;19.10;;;11.27;;
13943;SDS011;7044;53.286;8.534;2024-02-21T10:36:24;13.90;;;9.75;;
13943;SDS011;7044;53.286;8.534;2024-02-21T10:38:51;17.48;;;9.93;;
13943;SDS011;7044;53.286;8.534;2024-02-21T10:41:20;16.13;;;9.50;;
13943;SDS011;7044;53.286;8.534;2024-02-21T10:43:49;15.25;;;8.73;;
13943;SDS011;7044;53.286;8.534;2024-02-21T10:46:19;14.55;;;8.73;;
13943;SDS011;7044;53.286;8.534;2024-02-21T10:48:47;12.80;;;8.55;;
13943;SDS011;7044;53.286;8.534;2024-02-21T10:51:21;19.85;;;10.68;;
13943;SDS011;7044;53.286;8.534;2024-02-21T10:53:57;17.83;;;8.68;;
13943;SDS011;7044;53.286;8.534;2024-02-21T10:56:38;15.93;;;8.55;;
13943;SDS011;7044;53.286;8.534;2024-02-21T10:59:06;16.70;;;9.77;;
13943;SDS011;7044;53.286;8.534;2024-02-21T11:01:34;20.25;;;8.65;;
13943;SDS011;7044;53.286;8.534;2024-02-21T11:04:01;12.07;;;7.72;;
13943;SDS011;7044;53.286;8.534;2024-02-21T11:06:29;16.65;;;8.70;;
13943;SDS011;7044;53.286;8.534;2024-02-21T11:09:03;16.55;;;9.10;;
13943;SDS011;7044;53.286;8.534;2024-02-21T11:11:34;19.90;;;9.40;;
13943;SDS011;7044;53.286;8.534;2024-02-21T11:14:05;14.32;;;8.98;;
13943;SDS011;7044;53.286;8.534;2024-02-21T11:16:36;18.55;;;10.52;;
13943;SDS011;7044;53.286;8.534;2024-02-21T11:19:06;20.50;;;9.88;;
13943;SDS011;7044;53.286;8.534;2024-02-21T11:21:33;18.15;;;10.00;;
13943;SDS011;7044;53.286;8.534;2024-02-21T11:24:01;14.23;;;9.20;;
13943;SDS011;7044;53.286;8.534;2024-02-21T11:26:28;19.20;;;9.90;;
13943;SDS011;7044;53.286;8.534;2024-02-21T11:28:57;17.27;;;9.18;;
13943;SDS011;7044;53.286;8.534;2024-02-21T11:31:25;18.90;;;10.20;;
13943;SDS011;7044;53.286;8.534;2024-02-21T11:33:53;21.17;;;10.07;;
13943;SDS011;7044;53.286;8.534;2024-02-21T11:36:27;16.55;;;9.38;;
13943;SDS011;7044;53.286;8.534;2024-02-21T11:38:54;13.82;;;8.38;;
13943;SDS011;7044;53.286;8.534;2024-02-21T11:41:20;15.52;;;9.43;;
13943;SDS011;7044;53.286;8.534;2024-02-21T11:43:48;13.52;;;8.52;;
13943;SDS011;7044;53.286;8.534;2024-02-21T11:46:16;16.08;;;9.20;;
13943;SDS011;7044;53.286;8.534;2024-02-21T11:48:44;13.13;;;7.82;;
13943;SDS011;7044;53.286;8.534;2024-02-21T11:51:20;12.55;;;7.80;;
13943;SDS011;7044;53.286;8.534;2024-02-21T11:53:49;13.23;;;7.03;;
13943;SDS011;7044;53.286;8.534;2024-02-21T11:56:17;11.95;;;7.47;;
13943;SDS011;7044;53.286;8.534;2024-02-21T11:58:44;15.90;;;7.47;;
13943;SDS011;7044;53.286;8.534;2024-02-21T12:01:12;13.98;;;8.57;;
13943;SDS011;7044;53.286;8.534;2024-02-21T12:03:39;10.77;;;7.05;;
13943;SDS011;7044;53.286;8.534;2024-02-21T12:06:08;14.35;;;7.78;;
13943;SDS011;7044;53.286;8.534;2024-02-21T12:08:41;14.52;;;8.40;;
13943;SDS011;7044;53.286;8.534;2024-02-21T12:11:15;12.23;;;7.78;;
13943;SDS011;7044;53.286;8.534;2024-02-21T12:13:46;13.70;;;7.65;;
13943;SDS011;7044;53.286;8.534;2024-02-21T12:16:14;10.77;;;7.28;;
13943;SDS011;7044;53.286;8.534;2024-02-21T12:18:43;11.45;;;6.88;;
13943;SDS011;7044;53.286;8.534;2024-02-21T12:21:11;11.05;;;6.47;;
13943;SDS011;7044;53.286;8.534;2024-02-21T12:23:38;11.88;;;6.82;;
13943;SDS011;7044;53.286;8.534;2024-02-21T12:26:05;14.20;;;6.50;;
13943;SDS011;7044;53.286;8.534;2024-02-21T12:28:33;11.32;;;5.82;;
13943;SDS011;7044;53.286;8.534;2024-02-21T12:31:00;10.55;;;5.75;;
13943;SDS011;7044;53.286;8.534;2024-02-21T12:33:29;12.30;;;5.97;;
13943;SDS011;7044;53.286;8.534;2024-02-21T12:35:56;9.93;;;5.40;;
13943;SDS011;7044;53.286;8.534;2024-02-21T12:38:24;9.82;;;5.30;;
13943;SDS011;7044;53.286;8.534;2024-02-21T12:40:51;12.25;;;5.68;;
13943;SDS011;7044;53.286;8.534;2024-02-21T12:43:18;10.50;;;5.45;;
13943;SDS011;7044;53.286;8.534;2024-02-21T12:45:45;11.25;;;5.68;;
13943;SDS011;7044;53.286;8.534;2024-02-21T12:48:11;9.98;;;5.78;;
13943;SDS011;7044;53.286;8.534;2024-02-21T12:50:39;14.18;;;5.85;;
13943;SDS011;7044;53.286;8.534;2024-02-21T12:53:06;10.00;;;5.32;;
13943;SDS011;7044;53.286;8.534;2024-02-21T12:55:34;9.65;;;4.30;;
13943;SDS011;7044;53.286;8.534;2024-02-21T12:58:03;9.68;;;4.93;;
13943;SDS011;7044;53.286;8.534;2024-02-21T13:00:31;10.02;;;5.32;;
13943;SDS011;7044;53.286;8.534;2024-02-21T13:02:57;9.77;;;5.10;;
13943;SDS011;7044;53.286;8.534;2024-02-21T13:05:24;7.72;;;5.03;;
13943;SDS011;7044;53.286;8.534;2024-02-21T13:07:52;10.48;;;4.63;;
13943;SDS011;7044;53.286;8.534;2024-02-21T13:10:19;9.27;;;4.15;;
13943;SDS011;7044;53.286;8.534;2024-02-21T13:12:48;9.77;;;4.32;;
13943;SDS011;7044;53.286;8.534;2024-02-21T13:15:14;16.58;;;4.65;;
13943;SDS011;7044;53.286;8.534;2024-02-21T13:17:43;8.50;;;3.90;;
13943;SDS011;7044;53.286;8.534;2024-02-21T13:20:10;8.02;;;4.20;;
13943;SDS011;7044;53.286;8.534;2024-02-21T13:22:37;6.28;;;3.85;;
13943;SDS011;7044;53.286;8.534;2024-02-21T13:25:04;7.40;;;3.90;;
13943;SDS011;7044;53.286;8.534;2024-02-21T13:27:33;6.15;;;3.72;;
13943;SDS011;7044;53.286;8.534;2024-02-21T13:30:01;9.63;;;4.00;;
13943;SDS011;7044;53.286;8.534;2024-02-21T13:32:30;9.32;;;4.00;;
13943;SDS011;7044;53.286;8.534;2024-02-21T13:34:57;6.90;;;3.85;;
13943;SDS011;7044;53.286;8.534;2024-02-21T13:37:26;7.45;;;4.00;;
13943;SDS011;7044;53.286;8.534;2024-02-21T13:39:53;10.55;;;3.63;;
13943;SDS011;7044;53.286;8.534;2024-02-21T13:42:21;10.18;;;3.72;;
13943;SDS011;7044;53.286;8.534;2024-02-21T13:44:48;8.50;;;4.15;;
13943;SDS011;7044;53.286;8.534;2024-02-21T13:47:17;10.32;;;3.78;;
13943;SDS011;7044;53.286;8.534;2024-02-21T13:49:43;5.95;;;3.78;;
13943;SDS011;7044;53.286;8.534;2024-02-21T13:52:10;9.65;;;4.22;;
13943;SDS011;7044;53.286;8.534;2024-02-21T13:54:37;4.53;;;3.47;;
13943;SDS011;7044;53.286;8.534;2024-02-21T13:57:04;6.20;;;3.80;;
13943;SDS011;7044;53.286;8.534;2024-02-21T13:59:31;8.73;;;3.78;;
13943;SDS011;7044;53.286;8.534;2024-02-21T14:01:59;6.47;;;4.07;;
13943;SDS011;7044;53.286;8.534;2024-02-21T14:04:27;5.70;;;3.13;;
13943;SDS011;7044;53.286;8.534;2024-02-21T14:06:55;6.25;;;3.90;;
13943;SDS011;7044;53.286;8.534;2024-02-21T14:09:22;6.30;;;3.90;;
13943;SDS011;7044;53.286;8.534;2024-02-21T14:11:48;6.05;;;3.83;;
13943;SDS011;7044;53.286;8.534;2024-02-21T14:14:15;8.50;;;3.63;;
13943;SDS011;7044;53.286;8.534;2024-02-21T14:16:42;7.15;;;4.88;;
13943;SDS011;7044;53.286;8.534;2024-02-21T14:19:09;7.20;;;3.78;;
13943;SDS011;7044;53.286;8.534;2024-02-21T14:21:38;11.07;;;3.95;;
13943;SDS011;7044;53.286;8.534;2024-02-21T14:24:05;5.68;;;3.78;;
13943;SDS011;7044;53.286;8.534;2024-02-21T14:26:32;4.57;;;3.72;;
13943;SDS011;7044;53.286;8.534;2024-02-21T14:29:00;8.55;;;4.15;;
13943;SDS011;7044;53.286;8.534;2024-02-21T14:31:28;7.68;;;4.25;;
13943;SDS011;7044;53.286;8.534;2024-02-21T14:33:57;6.43;;;4.70;;
13943;SDS011;7044;53.286;8.534;2024-02-21T14:36:24;13.60;;;5.57;;
13943;SDS011;7044;53.286;8.534;2024-02-21T14:38:53;8.90;;;5.95;;
13943;SDS011;7044;53.286;8.534;2024-02-21T14:41:20;11.57;;;5.97;;
13943;SDS011;7044;53.286;8.534;2024-02-21T14:43:47;7.60;;;5.47;;
13943;SDS011;7044;53.286;8.534;2024-02-21T14:46:13;10.13;;;6.60;;
13943;SDS011;7044;53.286;8.534;2024-02-21T14:48:40;11.45;;;6.57;;
13943;SDS011;7044;53.286;8.534;2024-02-21T14:51:07;10.60;;;7.22;;
13943;SDS011;7044;53.286;8.534;2024-02-21T14:53:34;9.20;;;6.80;;